DAL1080 KLAX-KMEM
Flight info
| Callsign | DAL1080 |
|---|---|
| Flight time | N/A |
| Altitude | 37000 |
| Route | DOTSS2 CLEEE PKE HIDAT KA27O NABOB KA27Q KA27S IMMAS KA30Y KF30A IRW LITTR HOBRK4 |
| Aircraft | A320/M-SDE3FGHIRWY/LB1 |
Departure
| Time | 2026-04-20 20:23 |
|---|---|
| Airport | Los Angeles International Airport (KLAX) |
Arrival
| Time | N/A |
|---|---|
| Airport | Memphis International Airport (KMEM) |
| Time | Latitude | Longitude | Altitude | Speed | Heading |
|---|---|---|---|---|---|
| 2026-04-20 19:52 | 33.94673 | -118.40335 | 126 ft | 0 kts | 263° |
| 2026-04-20 20:13 | 33.94674 | -118.40325 | 121 ft | 4 kts | 263° |
| 2026-04-20 20:13 | 33.94678 | -118.40294 | 121 ft | 4 kts | 265° |
| 2026-04-20 20:13 | 33.94675 | -118.40264 | 121 ft | 4 kts | 301° |
| 2026-04-20 20:14 | 33.94658 | -118.40247 | 121 ft | 2 kts | 352° |
| 2026-04-20 20:14 | 33.94657 | -118.40246 | 121 ft | 0 kts | 353° |
| 2026-04-20 20:18 | 33.94709 | -118.40254 | 124 ft | 15 kts | 353° |
| 2026-04-20 20:18 | 33.94791 | -118.40265 | 123 ft | 5 kts | 353° |
| 2026-04-20 20:19 | 33.94823 | -118.40270 | 123 ft | 4 kts | 345° |
| 2026-04-20 20:19 | 33.94860 | -118.40286 | 124 ft | 8 kts | 349° |
| 2026-04-20 20:19 | 33.94903 | -118.40237 | 125 ft | 12 kts | 79° |
| 2026-04-20 20:19 | 33.94913 | -118.40132 | 125 ft | 12 kts | 82° |
| 2026-04-20 20:20 | 33.94919 | -118.40070 | 123 ft | 3 kts | 83° |
| 2026-04-20 20:20 | 33.94922 | -118.40047 | 124 ft | 2 kts | 83° |
| 2026-04-20 20:20 | 33.94923 | -118.40032 | 125 ft | 3 kts | 83° |
| 2026-04-20 20:20 | 33.94932 | -118.39961 | 125 ft | 10 kts | 75° |
| 2026-04-20 20:21 | 33.94952 | -118.39926 | 122 ft | 0 kts | 32° |
| 2026-04-20 20:21 | 33.94969 | -118.39915 | 125 ft | 7 kts | 22° |
| 2026-04-20 20:21 | 33.95021 | -118.39917 | 123 ft | 7 kts | 346° |
| 2026-04-20 20:21 | 33.95042 | -118.39955 | 123 ft | 5 kts | 271° |
| 2026-04-20 20:22 | 33.95041 | -118.39965 | 125 ft | 0 kts | 263° |
| 2026-04-20 20:22 | 33.95040 | -118.39980 | 123 ft | 10 kts | 263° |
| 2026-04-20 20:23 | 33.95000 | -118.40371 | 126 ft | 82 kts | 263° |
| 2026-04-20 20:23 | 33.94903 | -118.41296 | 122 ft | 138 kts | 263° |
| 2026-04-20 20:23 | 33.94772 | -118.42567 | 468 ft | 156 kts | 260° |
| 2026-04-20 20:23 | 33.94631 | -118.43870 | 1157 ft | 157 kts | 261° |
| 2026-04-20 20:24 | 33.94499 | -118.45178 | 1928 ft | 158 kts | 261° |
| 2026-04-20 20:24 | 33.94361 | -118.46584 | 2344 ft | 180 kts | 263° |
| 2026-04-20 20:24 | 33.94274 | -118.48189 | 2748 ft | 204 kts | 266° |
| 2026-04-20 20:24 | 33.94219 | -118.49995 | 3151 ft | 227 kts | 268° |
| 2026-04-20 20:25 | 33.94139 | -118.52000 | 3546 ft | 252 kts | 265° |
| 2026-04-20 20:25 | 33.93990 | -118.54183 | 4151 ft | 267 kts | 264° |
| 2026-04-20 20:25 | 33.93814 | -118.56429 | 5019 ft | 271 kts | 262° |
| 2026-04-20 20:25 | 33.93628 | -118.58698 | 5901 ft | 275 kts | 262° |
| 2026-04-20 20:26 | 33.93243 | -118.60923 | 6747 ft | 274 kts | 243° |
| 2026-04-20 20:26 | 33.92578 | -118.62237 | 7310 ft | 273 kts | 226° |
| 2026-04-20 20:26 | 33.91337 | -118.63459 | 7987 ft | 273 kts | 205° |
| 2026-04-20 20:26 | 33.89009 | -118.64098 | 9072 ft | 276 kts | 178° |
| 2026-04-20 20:27 | 33.87086 | -118.63971 | 9962 ft | 277 kts | 177° |
| 2026-04-20 20:27 | 33.85135 | -118.63695 | 10445 ft | 295 kts | 168° |
| 2026-04-20 20:27 | 33.83119 | -118.62846 | 10673 ft | 320 kts | 156° |
| 2026-04-20 20:27 | 33.81151 | -118.61400 | 10929 ft | 342 kts | 146° |
| 2026-04-20 20:28 | 33.79849 | -118.60294 | 11306 ft | 347 kts | 147° |
| 2026-04-20 20:28 | 33.77160 | -118.58077 | 12222 ft | 353 kts | 148° |
| 2026-04-20 20:28 | 33.75107 | -118.56417 | 12934 ft | 356 kts | 149° |
| 2026-04-20 20:28 | 33.73057 | -118.54769 | 13643 ft | 360 kts | 148° |
| 2026-04-20 20:29 | 33.71112 | -118.52830 | 14273 ft | 368 kts | 137° |
| 2026-04-20 20:29 | 33.69507 | -118.50394 | 14872 ft | 377 kts | 125° |
| 2026-04-20 20:29 | 33.68346 | -118.47534 | 15471 ft | 386 kts | 114° |
| 2026-04-20 20:29 | 33.67447 | -118.44462 | 16069 ft | 390 kts | 113° |
| 2026-04-20 20:30 | 33.66542 | -118.41371 | 16653 ft | 394 kts | 113° |
| 2026-04-20 20:30 | 33.65624 | -118.38257 | 17244 ft | 398 kts | 114° |
| 2026-04-20 20:30 | 33.64808 | -118.35067 | 17799 ft | 405 kts | 106° |
| 2026-04-20 20:30 | 33.64457 | -118.31672 | 18370 ft | 415 kts | 95° |
| 2026-04-20 20:31 | 33.64456 | -118.28227 | 18856 ft | 420 kts | 93° |
| 2026-04-20 20:31 | 33.64463 | -118.24711 | 19382 ft | 423 kts | 93° |
| 2026-04-20 20:31 | 33.64468 | -118.21161 | 19835 ft | 426 kts | 93° |
| 2026-04-20 20:31 | 33.64472 | -118.17611 | 20021 ft | 427 kts | 93° |
| 2026-04-20 20:32 | 33.64474 | -118.15215 | 20089 ft | 426 kts | 93° |
| 2026-04-20 20:32 | 33.64474 | -118.11689 | 20214 ft | 427 kts | 93° |
| 2026-04-20 20:32 | 33.64471 | -118.08128 | 20335 ft | 428 kts | 94° |
| 2026-04-20 20:32 | 33.64465 | -118.04535 | 20446 ft | 428 kts | 93° |
| 2026-04-20 20:33 | 33.64458 | -118.00943 | 20772 ft | 431 kts | 93° |
| 2026-04-20 20:33 | 33.64450 | -117.97337 | 21299 ft | 434 kts | 93° |
| 2026-04-20 20:33 | 33.64442 | -117.93705 | 21781 ft | 437 kts | 93° |
| 2026-04-20 20:33 | 33.64436 | -117.90050 | 22276 ft | 439 kts | 93° |
| 2026-04-20 20:34 | 33.64428 | -117.86391 | 22738 ft | 441 kts | 93° |
| 2026-04-20 20:34 | 33.64419 | -117.82685 | 23188 ft | 444 kts | 93° |
| 2026-04-20 20:34 | 33.64598 | -117.79012 | 23614 ft | 450 kts | 84° |
| 2026-04-20 20:34 | 33.65218 | -117.75320 | 23966 ft | 454 kts | 79° |
| 2026-04-20 20:35 | 33.65939 | -117.71600 | 24321 ft | 456 kts | 79° |
| 2026-04-20 20:35 | 33.66656 | -117.67887 | 24677 ft | 458 kts | 79° |
| 2026-04-20 20:35 | 33.67374 | -117.64156 | 25026 ft | 461 kts | 79° |
| 2026-04-20 20:35 | 33.68099 | -117.60400 | 25363 ft | 463 kts | 79° |
| 2026-04-20 20:36 | 33.68825 | -117.56622 | 25702 ft | 465 kts | 79° |
| 2026-04-20 20:36 | 33.69553 | -117.52827 | 26035 ft | 467 kts | 79° |
| 2026-04-20 20:36 | 33.70283 | -117.49015 | 26375 ft | 469 kts | 79° |
| 2026-04-20 20:36 | 33.71009 | -117.45185 | 26656 ft | 471 kts | 79° |
| 2026-04-20 20:37 | 33.71727 | -117.41377 | 26968 ft | 473 kts | 79° |
| 2026-04-20 20:37 | 33.72467 | -117.37474 | 27273 ft | 475 kts | 79° |
| 2026-04-20 20:37 | 33.73207 | -117.33584 | 27562 ft | 477 kts | 79° |
| 2026-04-20 20:37 | 33.73943 | -117.29701 | 27855 ft | 478 kts | 79° |
| 2026-04-20 20:38 | 33.74662 | -117.25836 | 28121 ft | 480 kts | 82° |
| 2026-04-20 20:38 | 33.75060 | -117.21862 | 28395 ft | 478 kts | 90° |
| 2026-04-20 20:38 | 33.75037 | -117.17878 | 28620 ft | 478 kts | 94° |
| 2026-04-20 20:38 | 33.74951 | -117.13884 | 28933 ft | 479 kts | 94° |
| 2026-04-20 20:39 | 33.74864 | -117.09865 | 29233 ft | 479 kts | 94° |
| 2026-04-20 20:39 | 33.74780 | -117.05875 | 29602 ft | 478 kts | 94° |
| 2026-04-20 20:39 | 33.74699 | -117.01891 | 29958 ft | 477 kts | 94° |